createdAt,value
2022-12-11T00:00:55.908Z,15.25
2022-12-11T00:03:23.068Z,14.68
2022-12-11T00:05:50.217Z,14.52
2022-12-11T00:08:19.843Z,23.98
2022-12-11T00:10:50.653Z,22.40
2022-12-11T00:13:17.725Z,13.95
2022-12-11T00:15:44.921Z,15.73
2022-12-11T00:18:16.833Z,13.77
2022-12-11T00:20:44.020Z,15.27
2022-12-11T00:23:11.551Z,13.38
2022-12-11T00:25:47.053Z,15.68
2022-12-11T00:28:19.026Z,11.93
2022-12-11T00:30:46.809Z,10.73
2022-12-11T00:33:15.425Z,14.23
2022-12-11T00:35:46.672Z,13.20
2022-12-11T00:38:21.540Z,11.80
2022-12-11T00:40:50.619Z,10.65
2022-12-11T00:43:18.091Z,10.50
2022-12-11T00:45:47.447Z,7.03
2022-12-11T00:48:15.376Z,11.27
2022-12-11T00:50:42.820Z,10.38
2022-12-11T00:53:12.196Z,12.65
2022-12-11T00:55:43.780Z,13.35
2022-12-11T00:58:12.652Z,15.77
2022-12-11T01:00:41.462Z,14.25
2022-12-11T01:03:12.202Z,15.25
2022-12-11T01:05:39.589Z,12.13
2022-12-11T01:08:07.274Z,14.15
2022-12-11T01:10:34.964Z,13.02
2022-12-11T01:13:09.596Z,10.77
2022-12-11T01:15:44.827Z,13.80
2022-12-11T01:18:16.832Z,12.45
2022-12-11T01:20:44.526Z,11.48
2022-12-11T01:23:13.575Z,14.43
2022-12-11T01:25:42.670Z,14.73
2022-12-11T01:28:12.793Z,14.85
2022-12-11T01:30:45.351Z,13.93
2022-12-11T01:33:15.433Z,13.52
2022-12-11T01:35:42.596Z,14.40
2022-12-11T01:38:10.567Z,12.63
2022-12-11T01:40:37.704Z,12.38
2022-12-11T01:43:04.795Z,13.43
2022-12-11T01:45:47.365Z,13.65
2022-12-11T01:48:28.671Z,15.38
2022-12-11T01:51:01.478Z,16.60
2022-12-11T01:53:43.854Z,16.60
2022-12-11T01:58:51.699Z,15.98
2022-12-11T02:01:40.879Z,16.88
2022-12-11T02:04:09.592Z,16.67
2022-12-11T02:06:44.402Z,17.60
2022-12-11T02:09:16.394Z,15.68
2022-12-11T02:12:26.327Z,15.02
2022-12-11T02:15:23.910Z,14.55
2022-12-11T02:18:34.485Z,16.65
2022-12-11T02:21:25.474Z,16.75
2022-12-11T02:24:20.441Z,17.27
2022-12-11T02:27:12.471Z,17.98
2022-12-11T02:30:01.139Z,14.85
2022-12-11T02:32:43.776Z,15.32
2022-12-11T02:35:33.523Z,16.35
2022-12-11T02:38:07.925Z,18.73
2022-12-11T02:40:40.051Z,22.65
2022-12-11T02:45:41.699Z,21.73
2022-12-11T02:48:13.583Z,23.10
2022-12-11T02:50:46.929Z,22.95
2022-12-11T02:53:20.485Z,24.63
2022-12-11T02:55:58.759Z,25.02
2022-12-11T02:58:34.402Z,24.90
2022-12-11T03:01:01.846Z,28.60
2022-12-11T03:03:33.970Z,27.42
2022-12-11T03:06:01.128Z,20.15
2022-12-11T03:08:28.892Z,21.13
2022-12-11T03:11:03.768Z,22.83
2022-12-11T03:13:31.644Z,19.20
2022-12-11T03:16:10.309Z,19.23
2022-12-11T03:18:46.079Z,18.95
2022-12-11T03:21:34.576Z,17.52
2022-12-11T03:24:32.767Z,26.80
2022-12-11T03:27:38.812Z,25.02
2022-12-11T03:30:19.697Z,23.55
2022-12-11T03:33:09.407Z,25.00
2022-12-11T03:35:45.741Z,29.35
2022-12-11T03:38:26.737Z,28.80
2022-12-11T03:40:58.307Z,24.50
2022-12-11T03:43:31.074Z,27.38
2022-12-11T03:46:00.626Z,26.48
2022-12-11T03:48:38.452Z,26.48
2022-12-11T03:51:07.551Z,26.65
2022-12-11T03:53:39.781Z,25.92
2022-12-11T03:58:36.520Z,24.40
2022-12-11T04:01:03.722Z,21.20
2022-12-11T04:03:30.979Z,26.98
2022-12-11T04:05:58.082Z,23.65
2022-12-11T04:08:25.575Z,20.40
2022-12-11T04:11:13.166Z,19.33
2022-12-11T04:13:42.245Z,23.95
2022-12-11T04:16:10.072Z,16.42
2022-12-11T04:18:56.113Z,18.80
2022-12-11T04:21:41.937Z,19.80
2022-12-11T04:24:15.615Z,19.08
2022-12-11T04:26:47.730Z,17.95
2022-12-11T04:31:43.782Z,19.55
2022-12-11T04:34:10.866Z,17.23
2022-12-11T04:36:38.194Z,15.23
2022-12-11T04:39:06.289Z,16.02
2022-12-11T04:41:33.915Z,16.52
2022-12-11T04:44:01.179Z,15.63
2022-12-11T04:46:31.193Z,14.35
2022-12-11T04:49:00.297Z,15.95
2022-12-11T04:51:28.684Z,16.38
2022-12-11T04:53:55.990Z,16.90
2022-12-11T04:56:23.182Z,16.98
2022-12-11T04:58:50.625Z,17.73
2022-12-11T05:01:22.329Z,16.83
2022-12-11T05:03:50.087Z,18.00
2022-12-11T05:06:17.341Z,20.05
2022-12-11T05:08:45.683Z,14.13
2022-12-11T05:11:15.599Z,16.20
2022-12-11T05:13:43.808Z,15.05
2022-12-11T05:16:14.139Z,17.17
2022-12-11T05:18:41.562Z,18.20
2022-12-11T05:21:12.710Z,16.63
2022-12-11T05:23:41.220Z,17.48
2022-12-11T05:26:15.300Z,16.35
2022-12-11T05:28:43.363Z,19.52
2022-12-11T05:31:18.485Z,18.95
2022-12-11T05:33:48.042Z,19.85
2022-12-11T05:36:20.879Z,17.60
2022-12-11T05:38:48.409Z,16.98
2022-12-11T05:41:19.277Z,16.92
2022-12-11T05:43:47.038Z,17.13
2022-12-11T05:46:24.219Z,17.40
2022-12-11T05:48:56.560Z,15.73
2022-12-11T05:51:27.612Z,15.93
2022-12-11T05:53:57.172Z,15.70
2022-12-11T05:56:35.039Z,17.20
2022-12-11T05:59:04.955Z,16.65
2022-12-11T06:01:42.183Z,14.98
2022-12-11T06:04:11.050Z,17.40
2022-12-11T06:06:38.385Z,17.90
2022-12-11T06:09:07.016Z,17.17
2022-12-11T06:11:36.020Z,18.67
2022-12-11T06:14:04.114Z,15.70
2022-12-11T06:16:34.397Z,15.43
2022-12-11T06:19:04.059Z,15.05
2022-12-11T06:21:33.399Z,17.10
2022-12-11T06:24:03.992Z,23.73
2022-12-11T06:26:32.326Z,19.20
2022-12-11T06:28:59.881Z,19.55
2022-12-11T06:31:27.233Z,19.80
2022-12-11T06:33:54.921Z,16.92
2022-12-11T06:36:24.779Z,18.60
2022-12-11T06:38:52.677Z,17.45
2022-12-11T06:41:22.520Z,16.73
2022-12-11T06:43:50.777Z,17.98
2022-12-11T06:46:21.099Z,17.35
2022-12-11T06:48:49.693Z,14.05
2022-12-11T06:51:25.196Z,14.93
2022-12-11T06:53:55.382Z,16.33
2022-12-11T06:56:31.477Z,16.40
2022-12-11T06:59:02.885Z,18.30
2022-12-11T07:01:33.185Z,17.15
2022-12-11T07:04:01.001Z,16.40
2022-12-11T07:06:29.261Z,16.17
2022-12-11T07:08:59.213Z,18.05
2022-12-11T07:11:26.370Z,19.00
2022-12-11T07:13:53.666Z,16.75
2022-12-11T07:16:23.296Z,22.85
2022-12-11T07:18:51.900Z,23.98
2022-12-11T07:21:21.353Z,17.65
2022-12-11T07:23:49.416Z,21.02
2022-12-11T07:26:21.364Z,20.98
2022-12-11T07:28:48.988Z,19.05
2022-12-11T07:31:35.127Z,19.08
2022-12-11T07:34:21.724Z,18.27
2022-12-11T07:37:07.518Z,24.55
2022-12-11T07:39:53.050Z,19.40
2022-12-11T07:42:44.450Z,20.55
2022-12-11T07:45:31.942Z,38.45
2022-12-11T07:48:17.504Z,36.85
2022-12-11T07:51:29.331Z,27.65
2022-12-11T07:54:17.008Z,15.60
2022-12-11T07:57:02.653Z,13.35
2022-12-11T07:59:48.095Z,14.93
2022-12-11T08:02:37.200Z,16.45
2022-12-11T08:05:23.473Z,14.20
2022-12-11T08:08:08.916Z,15.48
2022-12-11T08:10:54.088Z,14.82
2022-12-11T08:13:40.956Z,15.30
2022-12-11T08:16:27.679Z,15.65
2022-12-11T08:19:14.332Z,15.38
2022-12-11T08:22:00.016Z,17.38
2022-12-11T08:24:47.967Z,18.60
2022-12-11T08:27:33.479Z,21.58
2022-12-11T08:30:18.958Z,22.27
2022-12-11T08:33:04.531Z,23.52
2022-12-11T08:35:50.082Z,24.23
2022-12-11T08:38:36.425Z,22.92
2022-12-11T08:41:28.693Z,19.25
2022-12-11T08:47:02.418Z,14.68
2022-12-11T08:49:48.045Z,20.90
2022-12-11T08:52:35.642Z,17.45
2022-12-11T08:55:22.075Z,15.55
2022-12-11T08:58:07.843Z,15.60
2022-12-11T09:00:53.386Z,14.63
2022-12-11T09:03:40.073Z,15.27
2022-12-11T09:06:28.667Z,17.42
2022-12-11T09:09:14.845Z,17.00
2022-12-11T09:12:01.579Z,15.38
2022-12-11T09:14:47.525Z,13.50
2022-12-11T09:17:35.175Z,19.65
2022-12-11T09:20:21.144Z,15.90
2022-12-11T09:23:06.952Z,14.38
2022-12-11T09:25:52.479Z,13.65
2022-12-11T09:28:42.840Z,14.02
2022-12-11T09:31:34.963Z,15.75
2022-12-11T09:34:26.089Z,14.88
2022-12-11T09:37:14.734Z,15.43
2022-12-11T09:40:05.587Z,12.73
2022-12-11T09:43:22.860Z,14.45
2022-12-11T09:46:14.713Z,10.32
2022-12-11T09:49:03.828Z,14.02
2022-12-11T09:52:26.690Z,31.25
2022-12-11T09:55:27.536Z,37.08
2022-12-11T09:58:49.352Z,28.67
2022-12-11T10:02:03.416Z,25.05
2022-12-11T10:05:27.043Z,31.83
2022-12-11T10:08:38.441Z,13.27
2022-12-11T10:11:56.480Z,15.10
2022-12-11T10:15:13.254Z,25.10
2022-12-11T10:18:04.972Z,41.80
2022-12-11T10:20:55.000Z,22.00
2022-12-11T10:24:02.928Z,18.35
2022-12-11T10:26:49.099Z,20.42
2022-12-11T10:29:34.669Z,17.70
2022-12-11T10:32:26.341Z,21.23
2022-12-11T10:35:27.041Z,17.08
2022-12-11T10:38:43.112Z,24.17
2022-12-11T10:41:40.045Z,10.52
2022-12-11T10:44:31.546Z,19.63
2022-12-11T10:47:19.046Z,16.33
2022-12-11T10:50:05.405Z,16.45
2022-12-11T10:52:52.396Z,20.50
2022-12-11T10:55:45.671Z,21.38
2022-12-11T10:58:34.417Z,11.73
2022-12-11T11:01:24.448Z,15.77
2022-12-11T11:04:24.091Z,12.25
2022-12-11T11:07:20.604Z,15.77
2022-12-11T11:10:11.995Z,15.68
2022-12-11T11:13:02.413Z,14.98
2022-12-11T11:15:48.194Z,11.48
2022-12-11T11:18:34.828Z,17.40
2022-12-11T11:21:24.172Z,12.52
2022-12-11T11:24:36.391Z,15.27
2022-12-11T11:27:22.107Z,12.82
2022-12-11T11:30:35.645Z,13.98
2022-12-11T11:33:23.791Z,16.85
2022-12-11T11:36:25.961Z,14.65
2022-12-11T11:39:32.703Z,15.20
2022-12-11T11:42:30.137Z,20.95
2022-12-11T11:45:24.906Z,19.30
2022-12-11T11:49:03.850Z,19.55
2022-12-11T11:51:59.664Z,12.85
2022-12-11T11:55:00.906Z,17.48
2022-12-11T11:58:19.359Z,13.82
2022-12-11T12:01:15.741Z,17.33
2022-12-11T12:04:04.795Z,32.67
2022-12-11T12:07:27.452Z,24.13
2022-12-11T12:10:44.175Z,16.48
2022-12-11T12:14:01.177Z,19.92
2022-12-11T12:17:13.030Z,17.67
2022-12-11T12:20:19.824Z,13.73
2022-12-11T12:24:08.733Z,14.45
2022-12-11T12:27:17.542Z,14.00
2022-12-11T12:30:20.376Z,16.60
2022-12-11T12:33:59.690Z,18.38
2022-12-11T12:37:15.265Z,20.70
2022-12-11T12:40:48.839Z,20.50
2022-12-11T12:43:55.349Z,19.23
2022-12-11T12:47:05.330Z,15.20
2022-12-11T12:49:53.412Z,19.70
2022-12-11T12:52:40.977Z,16.63
2022-12-11T12:55:31.841Z,15.13
2022-12-11T12:58:42.971Z,12.27
2022-12-11T13:01:31.050Z,15.52
2022-12-11T13:04:55.979Z,29.55
2022-12-11T13:07:54.445Z,17.30
2022-12-11T13:10:43.632Z,21.88
2022-12-11T13:13:42.347Z,16.38
2022-12-11T13:16:52.386Z,20.58
2022-12-11T13:19:42.611Z,15.02
2022-12-11T13:22:28.451Z,15.93
2022-12-11T13:25:26.846Z,18.13
2022-12-11T13:28:24.495Z,17.85
2022-12-11T13:31:16.210Z,17.38
2022-12-11T13:34:23.986Z,16.80
2022-12-11T13:37:42.758Z,18.27
2022-12-11T13:40:38.434Z,24.23
2022-12-11T13:43:31.196Z,30.02
2022-12-11T13:46:26.285Z,47.05
2022-12-11T13:49:25.824Z,40.67
2022-12-11T13:52:21.705Z,46.25
2022-12-11T13:55:34.909Z,37.00
2022-12-11T13:58:23.416Z,17.98
2022-12-11T14:01:11.781Z,24.70
2022-12-11T14:04:12.588Z,26.73
2022-12-11T14:06:59.279Z,27.38
2022-12-11T14:09:46.513Z,21.90
2022-12-11T14:12:33.041Z,23.85
2022-12-11T14:15:19.517Z,24.10
2022-12-11T14:18:06.177Z,18.15
2022-12-11T14:21:00.859Z,23.75
2022-12-11T14:23:59.915Z,27.20
2022-12-11T14:26:52.024Z,23.17
2022-12-11T14:29:37.525Z,26.00
2022-12-11T14:32:35.943Z,23.02
2022-12-11T14:35:34.126Z,25.98
2022-12-11T14:38:37.143Z,28.60
2022-12-11T14:42:07.955Z,21.77
2022-12-11T14:45:13.260Z,19.30
2022-12-11T14:48:00.522Z,15.95
2022-12-11T14:50:53.450Z,14.85
2022-12-11T14:53:46.693Z,17.73
2022-12-11T14:56:33.823Z,16.95
2022-12-11T14:59:28.344Z,17.70
2022-12-11T15:02:28.245Z,15.45
2022-12-11T15:05:20.021Z,17.45
2022-12-11T15:08:12.648Z,15.48
2022-12-11T15:11:12.456Z,13.77
2022-12-11T15:14:02.605Z,14.80
2022-12-11T15:16:49.855Z,16.95
2022-12-11T15:19:36.451Z,18.38
2022-12-11T15:22:25.280Z,16.73
2022-12-11T15:25:27.988Z,15.30
2022-12-11T15:28:38.286Z,16.98
2022-12-11T15:31:33.596Z,22.92
2022-12-11T15:34:23.775Z,23.73
2022-12-11T15:37:27.185Z,21.73
2022-12-11T15:40:12.813Z,22.10
2022-12-11T15:43:02.226Z,23.40
2022-12-11T15:45:48.062Z,24.40
2022-12-11T15:48:34.299Z,29.48
2022-12-11T15:51:20.226Z,22.30
2022-12-11T15:54:05.959Z,17.73
2022-12-11T15:56:51.445Z,16.45
2022-12-11T15:59:37.033Z,13.90
2022-12-11T16:02:24.387Z,20.13
2022-12-11T16:05:10.777Z,13.38
2022-12-11T16:07:59.424Z,14.43
2022-12-11T16:10:47.125Z,15.00
2022-12-11T16:13:32.941Z,13.20
2022-12-11T16:16:18.498Z,14.95
2022-12-11T16:19:04.362Z,12.07
2022-12-11T16:21:49.756Z,13.10
2022-12-11T16:24:36.037Z,14.15
2022-12-11T16:27:23.414Z,16.92
2022-12-11T16:30:11.148Z,14.95
2022-12-11T16:32:57.509Z,13.00
2022-12-11T16:35:43.379Z,11.85
2022-12-11T16:38:29.206Z,15.13
2022-12-11T16:41:14.829Z,12.75
2022-12-11T16:44:02.120Z,11.52
2022-12-11T16:46:48.387Z,12.88
2022-12-11T16:49:33.871Z,10.68
2022-12-11T16:52:22.291Z,11.35
2022-12-11T16:55:10.744Z,9.48
2022-12-11T16:57:56.747Z,8.93
2022-12-11T17:00:42.493Z,9.02
2022-12-11T17:03:32.474Z,9.52
2022-12-11T17:06:18.939Z,11.65
2022-12-11T17:09:04.391Z,10.30
2022-12-11T17:11:50.036Z,10.18
2022-12-11T17:14:35.956Z,10.07
2022-12-11T17:17:21.774Z,13.45
2022-12-11T17:20:11.411Z,15.63
2022-12-11T17:22:56.950Z,11.45
2022-12-11T17:25:44.801Z,8.88
2022-12-11T17:28:30.973Z,8.25
2022-12-11T17:31:19.287Z,7.20
2022-12-11T17:34:05.291Z,9.02
2022-12-11T17:36:51.470Z,10.40
2022-12-11T17:39:37.677Z,6.15
2022-12-11T17:42:23.556Z,6.72
2022-12-11T17:45:10.354Z,7.20
2022-12-11T17:47:56.080Z,6.47
2022-12-11T17:50:47.290Z,8.73
2022-12-11T17:53:34.041Z,7.88
2022-12-11T17:56:20.073Z,7.95
2022-12-11T17:59:06.008Z,7.50
2022-12-11T18:01:51.795Z,8.82
2022-12-11T18:04:40.877Z,8.90
2022-12-11T18:07:26.867Z,9.25
2022-12-11T18:10:12.952Z,8.90
2022-12-11T18:12:58.383Z,7.55
2022-12-11T18:15:44.280Z,9.57
2022-12-11T18:18:30.403Z,8.18
2022-12-11T18:21:20.721Z,9.77
2022-12-11T18:24:06.718Z,10.82
2022-12-11T18:26:52.355Z,9.98
2022-12-11T18:29:38.370Z,9.98
2022-12-11T18:32:24.394Z,9.30
2022-12-11T18:35:11.679Z,9.23
2022-12-11T18:38:00.405Z,10.02
2022-12-11T18:40:45.888Z,9.32
2022-12-11T18:43:31.848Z,9.48
2022-12-11T18:46:20.713Z,12.82
2022-12-11T18:49:06.880Z,9.60
2022-12-11T18:51:52.546Z,10.82
2022-12-11T18:54:38.306Z,12.35
2022-12-11T18:57:23.904Z,11.32
2022-12-11T19:00:11.779Z,10.65
2022-12-11T19:02:57.482Z,13.15
2022-12-11T19:05:43.969Z,9.93
2022-12-11T19:08:29.528Z,9.38
2022-12-11T19:11:21.338Z,10.65
2022-12-11T19:14:08.557Z,13.63
2022-12-11T19:16:54.396Z,10.82
2022-12-11T19:19:39.826Z,8.77
2022-12-11T19:22:25.483Z,11.93
2022-12-11T19:25:11.703Z,11.32
2022-12-11T19:27:57.529Z,10.13
2022-12-11T19:30:51.913Z,8.85
2022-12-11T19:33:38.430Z,9.63
2022-12-11T19:36:27.435Z,10.90
2022-12-11T19:39:14.526Z,11.90
2022-12-11T19:42:00.185Z,10.75
2022-12-11T19:44:46.511Z,12.43
2022-12-11T19:47:32.038Z,13.40
2022-12-11T19:50:17.673Z,13.30
2022-12-11T19:53:03.836Z,14.32
2022-12-11T19:55:51.254Z,14.25
2022-12-11T19:58:37.227Z,18.20
2022-12-11T20:01:30.157Z,14.95
2022-12-11T20:04:20.309Z,14.60
2022-12-11T20:07:06.312Z,13.10
2022-12-11T20:09:51.760Z,16.38
2022-12-11T20:12:37.216Z,12.55
2022-12-11T20:15:27.571Z,13.13
2022-12-11T20:18:18.355Z,13.55
2022-12-11T20:21:08.484Z,14.00
2022-12-11T20:23:55.256Z,14.82
2022-12-11T20:26:41.246Z,12.40
2022-12-11T20:29:26.875Z,13.20
2022-12-11T20:32:12.371Z,12.70
2022-12-11T20:34:58.422Z,14.93
2022-12-11T20:37:44.167Z,15.95
2022-12-11T20:40:29.636Z,11.13
2022-12-11T20:43:15.247Z,14.40
2022-12-11T20:46:00.976Z,14.13
2022-12-11T20:48:47.554Z,14.90
2022-12-11T20:51:32.966Z,13.85
2022-12-11T20:54:18.380Z,17.70
2022-12-11T20:57:04.474Z,13.60
2022-12-11T20:59:50.255Z,13.18
2022-12-11T21:02:35.803Z,14.80
2022-12-11T21:05:21.800Z,14.65
2022-12-11T21:08:08.162Z,14.82
2022-12-11T21:10:53.811Z,13.38
2022-12-11T21:13:39.819Z,16.35
2022-12-11T21:16:25.505Z,16.17
2022-12-11T21:19:16.823Z,15.93
2022-12-11T21:22:03.741Z,15.32
2022-12-11T21:24:49.456Z,17.95
2022-12-11T21:27:35.262Z,14.32
2022-12-11T21:30:20.973Z,15.75
2022-12-11T21:33:06.437Z,20.13
2022-12-11T21:35:59.863Z,19.75
2022-12-11T21:38:46.879Z,19.13
2022-12-11T21:41:32.893Z,17.80
2022-12-11T21:47:24.694Z,15.38
2022-12-11T21:50:10.368Z,18.85
2022-12-11T21:52:55.825Z,16.90
2022-12-11T21:55:42.552Z,18.85
2022-12-11T21:58:28.230Z,18.90
2022-12-11T22:01:27.874Z,15.48
2022-12-11T22:04:17.250Z,16.67
2022-12-11T22:07:02.574Z,18.40
2022-12-11T22:09:48.144Z,18.98
2022-12-11T22:12:33.717Z,16.60
2022-12-11T22:15:19.710Z,16.58
2022-12-11T22:18:05.582Z,16.02
2022-12-11T22:20:50.987Z,16.90
2022-12-11T22:23:39.259Z,15.55
2022-12-11T22:26:27.065Z,16.02
2022-12-11T22:29:12.508Z,16.60
2022-12-11T22:31:58.907Z,16.60
2022-12-11T22:34:44.709Z,14.15
2022-12-11T22:37:30.354Z,14.60
2022-12-11T22:40:16.614Z,14.88
2022-12-11T22:43:02.156Z,15.52
2022-12-11T22:45:47.915Z,14.80
2022-12-11T22:48:33.699Z,14.15
2022-12-11T22:51:20.350Z,14.63
2022-12-11T22:54:06.417Z,12.00
2022-12-11T22:56:52.309Z,14.27
2022-12-11T22:59:37.697Z,11.65
2022-12-11T23:02:24.282Z,12.38
2022-12-11T23:05:12.259Z,13.20
2022-12-11T23:07:57.794Z,12.48
2022-12-11T23:10:43.821Z,12.40
2022-12-11T23:13:29.303Z,11.60
2022-12-11T23:16:15.087Z,10.80
2022-12-11T23:19:00.725Z,10.95
2022-12-11T23:21:46.584Z,11.57
2022-12-11T23:24:32.268Z,11.90
2022-12-11T23:27:17.919Z,12.73
2022-12-11T23:30:04.977Z,11.52
2022-12-11T23:32:50.638Z,11.98
2022-12-11T23:35:36.310Z,10.02
2022-12-11T23:38:22.547Z,11.95
2022-12-11T23:41:11.792Z,10.82
2022-12-11T23:43:57.680Z,9.90
2022-12-11T23:46:44.919Z,10.55
2022-12-11T23:49:31.199Z,10.68
2022-12-11T23:52:16.734Z,9.48
2022-12-11T23:55:02.187Z,9.18
2022-12-11T23:57:47.642Z,7.50
